This is the latest recevied weather packets stored in our database for station/object K7GFH-13. If no packets are shown the sender has not sent any weather packets the latest 10 day(s).
| Time | Temp. | Humidity | Pressure | Rain* | Wind** | Luminosity | Snow |
|---|---|---|---|---|---|---|---|
| 1777869666 | 23.33° C | 46% | 1009.8 hPa | 0 mm | - | 0 W/m² | - |
| 1777868764 | 25° C | 41% | 1009.5 hPa | 0 mm | - | 0 W/m² | - |
| 1777867859 | 25.56° C | 39% | 1009.2 hPa | 0 mm | - | 0 W/m² | - |
| 1777866955 | 25.56° C | 39% | 1009.2 hPa | 0 mm | - | 0 W/m² | - |
| 1777866051 | 26.11° C | 38% | 1009.1 hPa | 0 mm | - | 0 W/m² | - |
| 1777865149 | 27.22° C | 36% | 1009.1 hPa | 0 mm | - | 2 W/m² | - |
| 1777864244 | 27.22° C | 36% | 1008.8 hPa | 0 mm | - | 9 W/m² | - |
| 1777863341 | 28.33° C | 35% | 1008.9 hPa | 0 mm | - | 18 W/m² | - |
| 1777862437 | 28.89° C | 33% | 1009 hPa | 0 mm | - | 26 W/m² | - |
| 1777861538 | 28.89° C | 33% | 1008.8 hPa | 0 mm | - | 30 W/m² | - |
| 1777860634 | 30° C | 31% | 1008.9 hPa | 0 mm | - | 51 W/m² | - |
| 1777859730 | 30.56° C | 30% | 1008.8 hPa | 0 mm | - | 87 W/m² | - |
| 1777858825 | 30.56° C | 29% | 1008.9 hPa | 0 mm | - | 123 W/m² | - |
| 1777857923 | 30.56° C | 29% | 1009 hPa | 0 mm | - | 162 W/m² | - |
| 1777857019 | 31.11° C | 28% | 1009.2 hPa | 0 mm | - | 202 W/m² | - |
| 1777856114 | 31.11° C | 28% | 1009.4 hPa | 0 mm | - | 242 W/m² | - |
| 1777855212 | 31.11° C | 27% | 1009.7 hPa | 0 mm | - | 281 W/m² | - |
| 1777854308 | 31.11° C | 27% | 1009.4 hPa | 0 mm | - | 321 W/m² | - |
| 1777853405 | 31.11° C | 28% | 1009.5 hPa | 0 mm | - | 363 W/m² | - |
| 1777852503 | 31.11° C | 28% | 1009.6 hPa | 0 mm | - | 405 W/m² | - |
| 1777851602 | 31.11° C | 25% | 1009.7 hPa | 0 mm | - | 445 W/m² | - |
| 1777850702 | 31.11° C | 25% | 1009.8 hPa | 0 mm | - | 481 W/m² | - |
| 1777849800 | 31.67° C | 24% | 1009.9 hPa | 0 mm | - | 518 W/m² | - |
| 1777848896 | 31.67° C | 24% | 1010.2 hPa | 0 mm | - | 547 W/m² | - |
| 1777847993 | 31.11° C | 24% | 1010.5 hPa | 0 mm | - | 578 W/m² | - |
* Rain latest hour (hover to see other rain measurements)
** Current wind speed in m/s (hover to see current wind gust speed)